Time;durP1;ratioP1;P1;durP2;ratioP2;P2;SDS_P1;SDS_P2;PMS_P1;PMS_P2;Temp;Humidity;BMP_temperature;BMP_pressure;BME280_temperature;BME280_humidity;BME280_pressure;Samples;Min_cycle;Max_cycle;Signal;HPM_P1;HPM_P2
2023/08/24 00:00:54;;;;;;;;;;;;;;;28.53;36.94;98782.13;4993152;28;19913;-74
2023/08/24 00:03:21;;;;;;;;;;;;;;;28.50;36.98;98777.22;4993613;28;19918;-72
2023/08/24 00:05:47;;;;;;;;;;;;;;;28.51;36.77;98776.16;4994358;28;19920;-73
2023/08/24 00:08:12;;;;;;;;;;;;;;;28.55;36.61;98774.66;4994482;28;19918;-73
2023/08/24 00:10:37;;;;;;;;;;;;;;;28.58;36.41;98776.09;4995022;28;19914;-73
2023/08/24 00:13:03;;;;;;;;;;;;;;;28.58;36.53;98776.91;5010898;28;20385;-73
2023/08/24 00:15:28;;;;;;;;;;;;;;;28.59;36.43;98775.84;4977585;28;19913;-73
2023/08/24 00:17:54;;;;;;;;;;;;;;;28.57;36.60;98764.47;4994017;28;20356;-72
2023/08/24 00:20:19;;;;;;;;;;;;;;;28.55;36.79;98769.28;4994056;28;20008;-72
2023/08/24 00:22:45;;;;;;;;;;;;;;;28.53;36.88;98768.69;4993865;28;19913;-73
2023/08/24 00:25:10;;;;;;;;;;;;;;;28.54;36.80;98764.94;4993871;28;19921;-73
2023/08/24 00:27:36;;;;;;;;;;;;;;;28.51;36.79;98768.94;4995566;28;19913;-72
2023/08/24 00:30:06;;;;;;;;;;;;;;;28.51;36.87;98771.63;4994035;28;19913;-72
2023/08/24 00:32:33;;;;;;;;;;;;;;;28.49;37.03;98773.69;4993832;28;19928;-72
2023/08/24 00:34:58;;;;;;;;;;;;;;;28.49;36.78;98767.53;4993982;28;19918;-73
2023/08/24 00:37:24;;;;;;;;;;;;;;;28.51;36.65;98768.09;4993671;28;19914;-73
2023/08/24 00:39:49;;;;;;;;;;;;;;;28.49;36.81;98768.31;4993529;28;19979;-74
2023/08/24 00:42:15;;;;;;;;;;;;;;;28.48;37.03;98764.03;4993062;28;19936;-72
2023/08/24 00:44:40;;;;;;;;;;;;;;;28.46;37.04;98760.72;4977300;28;20293;-72
2023/08/24 00:47:06;;;;;;;;;;;;;;;28.46;36.99;98765.28;4993694;28;19920;-72
2023/08/24 00:49:31;;;;;;;;;;;;;;;28.44;37.04;98756.66;4993428;28;20297;-72
2023/08/24 00:51:57;;;;;;;;;;;;;;;28.41;37.20;98755.25;4993579;28;20392;-72
2023/08/24 00:54:22;;;;;;;;;;;;;;;28.38;37.06;98755.72;4976598;28;19918;-72
2023/08/24 00:56:47;;;;;;;;;;;;;;;28.39;37.20;98749.31;4994445;28;20000;-72
2023/08/24 00:59:13;;;;;;;;;;;;;;;28.38;37.31;98757.59;4993672;28;20340;-72
2023/08/24 01:01:39;;;;;;;;;;;;;;;28.33;37.03;98751.03;4993491;28;19952;-72
2023/08/24 01:04:05;;;;;;;;;;;;;;;28.33;37.14;98755.59;5009963;28;19914;-72
2023/08/24 01:06:30;;;;;;;;;;;;;;;28.36;36.94;98757.81;4993392;28;19913;-72
2023/08/24 01:08:55;;;;;;;;;;;;;;;28.42;36.98;98758.78;4994239;28;19921;-72
2023/08/24 01:11:26;;;;;;;;;;;;;;;28.44;36.86;98749.41;4993319;28;19918;-72
2023/08/24 01:13:57;;;;;;;;;;;;;;;28.46;36.91;98744.63;4992931;28;19921;-72
2023/08/24 01:16:27;;;;;;;;;;;;;;;28.50;37.05;98745.00;4994477;28;20454;-72
2023/08/24 01:18:53;;;;;;;;;;;;;;;28.48;37.02;98741.72;4993907;28;19917;-72
2023/08/24 01:21:19;;;;;;;;;;;;;;;28.48;37.09;98739.03;4993019;28;19913;-72
2023/08/24 01:23:47;;;;;;;;;;;;;;;28.44;37.35;98740.56;4994214;28;20312;-72
2023/08/24 01:26:13;;;;;;;;;;;;;;;28.43;37.21;98742.44;4994402;28;19975;-72
2023/08/24 01:28:39;;;;;;;;;;;;;;;28.43;37.12;98736.22;4992857;28;20304;-72
2023/08/24 01:31:05;;;;;;;;;;;;;;;28.44;37.08;98743.25;4992934;28;19914;-73
2023/08/24 01:33:30;;;;;;;;;;;;;;;28.44;36.98;98732.50;4992491;28;19913;-72
2023/08/24 01:35:55;;;;;;;;;;;;;;;28.45;37.15;98737.66;4992664;28;19914;-72
2023/08/24 01:38:21;;;;;;;;;;;;;;;28.46;36.92;98733.88;4992305;28;19913;-72
2023/08/24 01:41:09;;;;;;;;;;;;;;;28.47;37.04;98735.53;4992122;28;19913;-72
2023/08/24 01:43:35;;;;;;;;;;;;;;;28.46;37.06;98727.72;4991857;28;20016;-72
2023/08/24 01:46:03;;;;;;;;;;;;;;;28.45;37.29;98716.16;4992637;28;20385;-72
2023/08/24 01:48:28;;;;;;;;;;;;;;;28.48;37.02;98720.22;4991666;28;20300;-72
2023/08/24 01:50:54;;;;;;;;;;;;;;;28.48;37.02;98722.91;4992513;28;19914;-72
2023/08/24 01:53:19;;;;;;;;;;;;;;;28.45;37.04;98715.34;4992275;28;19917;-72
2023/08/24 01:55:45;;;;;;;;;;;;;;;28.44;36.91;98711.84;4992033;28;19913;-72
2023/08/24 01:58:10;;;;;;;;;;;;;;;28.44;37.05;98714.53;4991991;28;19996;-73
2023/08/24 02:00:35;;;;;;;;;;;;;;;28.38;37.32;98711.97;5008368;28;20301;-72
2023/08/24 02:03:01;;;;;;;;;;;;;;;28.41;37.22;98709.63;4991989;28;19914;-72
2023/08/24 02:05:27;;;;;;;;;;;;;;;28.36;37.39;98711.38;5007985;28;20433;-72
2023/08/24 02:07:53;;;;;;;;;;;;;;;28.34;37.45;98709.75;4991526;28;19924;-72
2023/08/24 02:10:19;;;;;;;;;;;;;;;28.36;37.33;98711.38;4992649;28;19913;-72
2023/08/24 02:12:44;;;;;;;;;;;;;;;28.32;37.44;98713.69;4991671;28;19928;-72
2023/08/24 02:15:09;;;;;;;;;;;;;;;28.29;37.42;98714.16;4991232;28;19921;-72
2023/08/24 02:17:35;;;;;;;;;;;;;;;28.27;37.55;98714.41;4992799;28;20444;-72
2023/08/24 02:20:00;;;;;;;;;;;;;;;28.23;37.59;98713.25;4991591;28;19926;-72
2023/08/24 02:22:25;;;;;;;;;;;;;;;28.24;37.37;98703.31;4991112;28;20012;-72
2023/08/24 02:24:50;;;;;;;;;;;;;;;28.24;37.76;98703.31;5008720;28;19920;-72
2023/08/24 02:27:16;;;;;;;;;;;;;;;28.23;37.66;98704.34;4992843;28;19921;-71
2023/08/24 02:29:41;;;;;;;;;;;;;;;28.19;37.61;98703.22;4992972;28;19921;-72
2023/08/24 02:32:06;;;;;;;;;;;;;;;28.14;37.64;98703.91;4991907;28;19914;-72
2023/08/24 02:34:32;;;;;;;;;;;;;;;28.15;37.67;98706.34;4992125;28;20304;-72
2023/08/24 02:36:57;;;;;;;;;;;;;;;28.12;37.83;98706.00;4992477;28;19913;-72
2023/08/24 02:39:22;;;;;;;;;;;;;;;28.11;37.71;98709.72;4991468;28;19918;-72
2023/08/24 02:41:48;;;;;;;;;;;;;;;28.09;37.89;98706.47;4990382;28;19971;-73
2023/08/24 02:44:13;;;;;;;;;;;;;;;28.04;38.05;98709.84;5008322;28;19914;-72
2023/08/24 02:46:38;;;;;;;;;;;;;;;28.06;37.84;98709.63;4991569;28;19920;-72
2023/08/24 02:49:03;;;;;;;;;;;;;;;28.00;38.13;98713.22;4991524;28;20008;-73
2023/08/24 02:51:31;;;;;;;;;;;;;;;27.96;38.11;98713.69;4991025;28;19918;-72
2023/08/24 02:53:56;;;;;;;;;;;;;;;27.94;38.19;98707.75;5008102;28;19913;-72
2023/08/24 02:56:21;;;;;;;;;;;;;;;27.94;38.17;98701.50;5008488;28;20016;-75
2023/08/24 02:58:47;;;;;;;;;;;;;;;27.98;38.90;98706.22;4991935;28;19914;-74
2023/08/24 03:01:12;;;;;;;;;;;;;;;28.04;40.05;98704.47;4991656;28;19940;-72
2023/08/24 03:03:37;;;;;;;;;;;;;;;28.07;39.09;98693.28;5008540;28;19914;-74
2023/08/24 03:06:06;;;;;;;;;;;;;;;28.12;39.37;98704.13;4992308;28;19921;-74
2023/08/24 03:08:31;;;;;;;;;;;;;;;28.11;38.91;98702.50;4991774;28;19914;-73
2023/08/24 03:10:57;;;;;;;;;;;;;;;28.17;39.06;98697.25;4990412;28;19925;-72
2023/08/24 03:13:23;;;;;;;;;;;;;;;28.22;39.38;98689.31;4991251;28;19926;-73
2023/08/24 03:15:48;;;;;;;;;;;;;;;28.16;38.84;98685.69;4991701;28;19917;-74
2023/08/24 03:18:14;;;;;;;;;;;;;;;28.13;40.28;98688.84;4992649;28;20388;-75
2023/08/24 03:20:40;;;;;;;;;;;;;;;28.08;39.74;98686.84;4994973;28;19914;-75
2023/08/24 03:23:05;;;;;;;;;;;;;;;28.11;39.36;98686.38;4994412;28;20377;-76
2023/08/24 03:25:31;;;;;;;;;;;;;;;28.08;38.67;98686.06;5009912;28;20419;-80
2023/08/24 03:27:56;;;;;;;;;;;;;;;27.90;38.54;98682.38;4994657;28;20382;-80
2023/08/24 03:30:22;;;;;;;;;;;;;;;27.76;38.79;98683.66;4995979;28;20379;-85
2023/08/24 03:32:47;;;;;;;;;;;;;;;27.71;39.13;98691.56;4994671;28;19914;-84
2023/08/24 03:35:13;;;;;;;;;;;;;;;27.69;39.11;98683.75;4994102;28;20381;-84
2023/08/24 03:37:38;;;;;;;;;;;;;;;27.70;38.93;98689.94;4994632;28;19925;-84
2023/08/24 03:40:04;;;;;;;;;;;;;;;27.67;38.97;98693.06;5010965;28;19922;-84
2023/08/24 03:42:29;;;;;;;;;;;;;;;27.65;39.48;98697.84;4995492;28;19915;-84
2023/08/24 03:44:54;;;;;;;;;;;;;;;27.78;38.89;98697.63;4994869;28;19913;-84
2023/08/24 03:47:19;;;;;;;;;;;;;;;27.95;38.68;98700.50;5011445;28;19964;-84
2023/08/24 03:49:45;;;;;;;;;;;;;;;28.11;38.25;98693.63;4994371;28;20270;-85
2023/08/24 03:52:10;;;;;;;;;;;;;;;28.15;38.33;98689.44;4994571;28;19925;-84
2023/08/24 03:54:35;;;;;;;;;;;;;;;28.21;38.24;98699.25;4993809;28;19914;-84
2023/08/24 03:57:01;;;;;;;;;;;;;;;28.42;37.85;98705.09;4994465;28;19913;-85
2023/08/24 03:59:26;;;;;;;;;;;;;;;28.63;37.71;98711.75;5010967;28;19914;-84
2023/08/24 04:01:52;;;;;;;;;;;;;;;28.85;37.10;98714.63;4994554;28;20380;-85
2023/08/24 04:04:17;;;;;;;;;;;;;;;29.06;36.25;98713.16;4994251;28;20011;-85
2023/08/24 04:06:43;;;;;;;;;;;;;;;29.28;35.95;98707.97;4994647;28;19914;-85
2023/08/24 04:09:09;;;;;;;;;;;;;;;29.58;35.42;98707.72;5010067;28;20396;-84
2023/08/24 04:11:34;;;;;;;;;;;;;;;29.83;35.12;98703.88;4993990;28;19920;-85
2023/08/24 04:13:59;;;;;;;;;;;;;;;30.13;35.11;98711.63;4995478;28;19922;-85
2023/08/24 04:16:25;;;;;;;;;;;;;;;30.29;34.33;98711.84;4994012;28;20332;-86
2023/08/24 04:18:50;;;;;;;;;;;;;;;29.93;34.82;98714.00;4994490;28;19913;-85
2023/08/24 04:21:16;;;;;;;;;;;;;;;29.98;35.29;98713.25;4994636;28;19968;-86
2023/08/24 04:23:45;;;;;;;;;;;;;;;30.56;34.05;98712.00;4994043;28;20365;-86
2023/08/24 04:26:13;;;;;;;;;;;;;;;31.12;33.35;98719.19;4994839;28;19913;-85
2023/08/24 04:28:38;;;;;;;;;;;;;;;31.43;32.94;98727.63;4993056;28;20004;-86
2023/08/24 04:31:04;;;;;;;;;;;;;;;31.83;32.33;98727.22;4994134;28;19971;-85
2023/08/24 04:33:29;;;;;;;;;;;;;;;32.30;31.42;98725.72;4993507;28;19914;-85
2023/08/24 04:35:54;;;;;;;;;;;;;;;32.80;30.64;98726.31;4995193;28;19918;-85
2023/08/24 04:38:20;;;;;;;;;;;;;;;33.31;29.59;98725.72;4993365;28;19925;-85
2023/08/24 04:40:51;;;;;;;;;;;;;;;33.72;29.75;98731.25;5010741;28;19914;-85
2023/08/24 04:43:17;;;;;;;;;;;;;;;34.36;28.73;98729.88;5010531;28;19921;-84
2023/08/24 04:45:42;;;;;;;;;;;;;;;34.68;28.45;98731.44;4993729;28;20400;-85
2023/08/24 04:48:08;;;;;;;;;;;;;;;35.19;27.18;98735.88;5010145;28;19914;-85
2023/08/24 04:50:33;;;;;;;;;;;;;;;35.60;26.96;98740.28;5009855;28;19913;-72
2023/08/24 04:52:59;;;;;;;;;;;;;;;36.27;26.10;98737.06;4994104;28;19920;-71
2023/08/24 04:55:24;;;;;;;;;;;;;;;36.93;25.35;98735.56;5009372;28;19913;-75
2023/08/24 04:57:49;;;;;;;;;;;;;;;37.55;24.83;98741.00;5016212;28;19920;-80
2023/08/24 05:00:16;;;;;;;;;;;;;;;38.22;24.17;98744.59;5008749;28;20293;-81
2023/08/24 05:02:44;;;;;;;;;;;;;;;38.72;23.58;98745.59;4992964;28;20112;-71
2023/08/24 05:05:13;;;;;;;;;;;;;;;39.22;23.05;98741.31;4994672;28;19917;-77
2023/08/24 05:07:39;;;;;;;;;;;;;;;39.71;22.20;98745.16;5009062;28;19914;-77
2023/08/24 05:10:05;;;;;;;;;;;;;;;40.17;22.10;98748.69;4992111;28;19921;-75
2023/08/24 05:12:30;;;;;;;;;;;;;;;40.58;21.67;98744.06;5008604;28;20336;-74
2023/08/24 05:14:55;;;;;;;;;;;;;;;40.96;20.87;98749.03;4992670;28;19997;-76
2023/08/24 05:17:24;;;;;;;;;;;;;;;41.33;20.83;98744.13;4989890;28;19921;-77
2023/08/24 05:19:53;;;;;;;;;;;;;;;41.00;21.09;98742.59;4989719;28;19914;-78
2023/08/24 05:22:18;;;;;;;;;;;;;;;39.76;22.41;98746.94;4989801;28;19914;-77
2023/08/24 05:24:45;;;;;;;;;;;;;;;39.02;23.40;98751.53;4989610;28;19914;-80
2023/08/24 05:27:10;;;;;;;;;;;;;;;38.37;23.82;98758.75;4989309;28;20309;-86
2023/08/24 05:29:36;;;;;;;;;;;;;;;37.76;23.71;98759.78;4990608;28;19921;-83
2023/08/24 05:32:02;;;;;;;;;;;;;;;37.21;24.51;98763.81;4989787;28;19920;-76
2023/08/24 05:34:28;;;;;;;;;;;;;;;36.79;25.07;98754.47;4989213;28;19961;-75
2023/08/24 05:36:53;;;;;;;;;;;;;;;36.43;25.68;98759.47;4989349;28;19954;-77
2023/08/24 05:39:18;;;;;;;;;;;;;;;36.12;26.30;98754.28;4989376;28;19914;-75
2023/08/24 05:41:44;;;;;;;;;;;;;;;35.88;26.29;98755.00;4988937;28;20316;-78
2023/08/24 05:44:09;;;;;;;;;;;;;;;35.81;26.59;98754.53;4989342;28;20373;-78
2023/08/24 05:46:34;;;;;;;;;;;;;;;36.95;25.42;98752.38;4989177;28;19914;-77
2023/08/24 05:48:59;;;;;;;;;;;;;;;37.54;24.56;98752.19;4989450;28;19914;-78
2023/08/24 05:51:25;;;;;;;;;;;;;;;37.81;24.15;98757.78;4989139;28;19916;-74
2023/08/24 05:53:55;;;;;;;;;;;;;;;38.89;23.27;98750.44;4974068;28;19914;-77
2023/08/24 05:56:21;;;;;;;;;;;;;;;39.71;22.74;98756.06;4988730;28;19949;-77
2023/08/24 05:58:46;;;;;;;;;;;;;;;40.31;20.60;98759.50;4989741;28;20021;-75
2023/08/24 06:01:11;;;;;;;;;;;;;;;40.93;21.07;98755.13;4989066;28;19921;-76
2023/08/24 06:03:37;;;;;;;;;;;;;;;41.46;20.58;98753.31;4988998;28;19915;-77
2023/08/24 06:06:05;;;;;;;;;;;;;;;41.34;16.21;98743.00;4988952;28;19992;-71
2023/08/24 06:08:31;;;;;;;;;;;;;;;41.51;15.48;98753.16;4988637;28;19913;-72
2023/08/24 06:10:57;;;;;;;;;;;;;;;41.67;15.24;98756.22;4988543;28;20332;-71
2023/08/24 06:13:22;;;;;;;;;;;;;;;41.95;16.61;98757.47;4988281;28;19929;-73
2023/08/24 06:15:47;;;;;;;;;;;;;;;42.27;16.93;98758.09;4988590;28;20313;-76
2023/08/24 06:18:13;;;;;;;;;;;;;;;42.67;16.65;98759.75;4989435;28;19929;-76
2023/08/24 06:20:38;;;;;;;;;;;;;;;43.06;15.95;98757.75;4988707;28;19920;-77
2023/08/24 06:23:04;;;;;;;;;;;;;;;43.36;15.68;98754.97;4988751;28;20004;-75
2023/08/24 06:25:31;;;;;;;;;;;;;;;43.63;15.86;98752.84;4997605;28;19918;-75
2023/08/24 06:27:56;;;;;;;;;;;;;;;43.91;14.46;98750.34;4991734;28;20008;-75
2023/08/24 06:30:21;;;;;;;;;;;;;;;44.04;14.28;98762.16;4975635;28;19996;-75
2023/08/24 06:32:47;;;;;;;;;;;;;;;44.23;15.16;98753.41;4992082;28;20366;-76
2023/08/24 06:35:14;;;;;;;;;;;;;;;44.28;13.27;98761.44;4991874;28;19917;-75
2023/08/24 06:37:39;;;;;;;;;;;;;;;44.30;15.28;98758.34;4975742;28;20423;-75
2023/08/24 06:40:05;;;;;;;;;;;;;;;44.61;15.10;98757.84;4975612;28;19957;-80
2023/08/24 06:42:31;;;;;;;;;;;;;;;44.66;16.28;98762.31;4991717;28;20384;-76
2023/08/24 06:44:57;;;;;;;;;;;;;;;44.84;16.34;98765.66;4975566;28;19914;-74
2023/08/24 06:47:22;;;;;;;;;;;;;;;44.95;16.05;98759.31;4991561;28;19968;-74
2023/08/24 06:49:47;;;;;;;;;;;;;;;45.06;16.37;98759.66;4991796;28;19914;-75
2023/08/24 06:52:13;;;;;;;;;;;;;;;45.15;16.63;98757.59;4992272;28;19924;-75
2023/08/24 06:54:38;;;;;;;;;;;;;;;45.26;16.74;98762.59;4994991;28;19921;-75
2023/08/24 06:57:03;;;;;;;;;;;;;;;45.45;15.61;98757.31;4995602;28;20309;-78
2023/08/24 06:59:29;;;;;;;;;;;;;;;45.42;16.51;98769.03;5012080;28;20027;-75
2023/08/24 07:01:54;;;;;;;;;;;;;;;45.62;15.70;98766.41;4997246;28;19920;-76
2023/08/24 07:04:19;;;;;;;;;;;;;;;45.26;16.73;98765.34;4995406;28;19913;-81
2023/08/24 07:06:46;;;;;;;;;;;;;;;45.16;16.41;98767.44;4995600;28;19914;-75
2023/08/24 07:09:11;;;;;;;;;;;;;;;45.46;15.82;98766.38;4994945;28;19984;-77
2023/08/24 07:11:36;;;;;;;;;;;;;;;45.42;16.55;98766.28;4995001;28;20380;-76
2023/08/24 07:14:02;;;;;;;;;;;;;;;45.18;16.95;98769.06;4994734;28;20498;-76
2023/08/24 07:16:27;;;;;;;;;;;;;;;44.62;16.92;98762.19;4995238;28;19913;-77
2023/08/24 07:18:52;;;;;;;;;;;;;;;44.35;16.98;98753.44;4995214;28;19917;-76
2023/08/24 07:21:18;;;;;;;;;;;;;;;43.82;17.07;98755.13;4995184;28;20371;-76
2023/08/24 07:23:43;;;;;;;;;;;;;;;43.77;17.43;98758.84;4995843;28;19914;-76
2023/08/24 07:26:09;;;;;;;;;;;;;;;43.94;17.57;98752.41;4996212;28;19913;-76
2023/08/24 07:28:34;;;;;;;;;;;;;;;44.33;17.38;98749.41;4995328;28;19972;-76
2023/08/24 07:31:06;;;;;;;;;;;;;;;44.59;17.23;98757.38;4994624;28;19920;-75
2023/08/24 07:33:32;;;;;;;;;;;;;;;44.87;17.42;98745.69;4994960;28;19918;-75
2023/08/24 07:35:57;;;;;;;;;;;;;;;45.11;17.48;98744.88;4994933;28;19924;-77
2023/08/24 07:38:23;;;;;;;;;;;;;;;45.34;16.83;98747.88;4994210;28;20017;-76
2023/08/24 07:40:48;;;;;;;;;;;;;;;45.61;16.90;98743.56;5011572;28;20067;-76
2023/08/24 07:43:13;;;;;;;;;;;;;;;45.83;16.86;98735.91;4994658;28;19980;-76
2023/08/24 07:45:40;;;;;;;;;;;;;;;46.06;16.83;98733.38;4994649;28;20016;-75
2023/08/24 07:48:06;;;;;;;;;;;;;;;46.34;16.79;98741.59;4994754;28;20027;-77
2023/08/24 07:50:32;;;;;;;;;;;;;;;46.67;15.60;98742.38;4995325;28;20369;-77
2023/08/24 07:52:57;;;;;;;;;;;;;;;46.67;14.98;98745.13;4995065;28;19914;-75
2023/08/24 07:55:22;;;;;;;;;;;;;;;46.55;15.15;98730.28;4994499;28;19940;-76
2023/08/24 07:57:48;;;;;;;;;;;;;;;46.75;14.86;98738.66;4995934;28;20296;-78
2023/08/24 08:00:14;;;;;;;;;;;;;;;46.59;15.55;98730.38;4994759;28;20025;-76
2023/08/24 08:02:39;;;;;;;;;;;;;;;45.75;15.99;98725.81;4994938;28;20404;-76
2023/08/24 08:05:07;;;;;;;;;;;;;;;45.40;16.51;98726.44;5011649;28;20288;-77
2023/08/24 08:07:32;;;;;;;;;;;;;;;45.55;16.29;98727.63;4994964;28;19913;-76
2023/08/24 08:09:58;;;;;;;;;;;;;;;45.85;15.80;98720.63;4994988;28;19921;-75
2023/08/24 08:12:23;;;;;;;;;;;;;;;45.21;16.58;98722.31;4993755;28;19936;-76
2023/08/24 08:14:48;;;;;;;;;;;;;;;45.15;16.71;98723.72;4994181;28;19914;-77
2023/08/24 08:17:14;;;;;;;;;;;;;;;45.47;16.52;98727.44;4994873;28;20309;-75
2023/08/24 08:19:39;;;;;;;;;;;;;;;45.32;16.83;98723.44;4995380;28;20301;-76
2023/08/24 08:22:05;;;;;;;;;;;;;;;45.39;16.59;98733.09;5010546;28;19914;-80
2023/08/24 08:24:30;;;;;;;;;;;;;;;45.61;16.46;98731.72;4995003;28;19921;-77
2023/08/24 08:26:55;;;;;;;;;;;;;;;45.89;16.28;98734.50;4994209;28;19949;-77
2023/08/24 08:29:21;;;;;;;;;;;;;;;46.05;15.89;98729.00;4995833;28;19985;-78
2023/08/24 08:31:46;;;;;;;;;;;;;;;46.31;15.59;98742.31;4994240;28;19921;-76
2023/08/24 08:34:11;;;;;;;;;;;;;;;46.57;15.25;98732.69;4993902;28;19917;-75
2023/08/24 08:36:36;;;;;;;;;;;;;;;46.83;15.25;98734.06;5011012;28;19925;-77
2023/08/24 08:39:04;;;;;;;;;;;;;;;46.96;14.93;98726.50;4994875;28;19917;-76
2023/08/24 08:41:31;;;;;;;;;;;;;;;47.14;14.44;98735.16;5010198;28;19964;-77
2023/08/24 08:43:56;;;;;;;;;;;;;;;47.25;14.66;98730.66;5010279;28;19968;-75
2023/08/24 08:46:22;;;;;;;;;;;;;;;47.34;13.20;98723.00;4993711;28;19957;-77
2023/08/24 08:48:47;;;;;;;;;;;;;;;46.61;14.47;98716.22;4994083;28;19920;-77
2023/08/24 08:51:13;;;;;;;;;;;;;;;46.61;14.69;98717.03;4994390;28;19918;-77
2023/08/24 08:53:39;;;;;;;;;;;;;;;46.87;14.03;98710.88;4993841;28;20365;-77
2023/08/24 08:56:04;;;;;;;;;;;;;;;46.38;14.45;98714.88;4993551;28;19961;-77
2023/08/24 08:58:31;;;;;;;;;;;;;;;46.05;15.30;98706.94;4993628;28;19953;-75
2023/08/24 09:00:59;;;;;;;;;;;;;;;46.21;15.04;98712.47;4993880;28;19920;-78
2023/08/24 09:03:24;;;;;;;;;;;;;;;46.06;14.64;98705.78;4994014;28;19920;-77
2023/08/24 09:05:49;;;;;;;;;;;;;;;46.33;14.65;98714.34;4993924;28;19929;-78
2023/08/24 09:08:18;;;;;;;;;;;;;;;46.40;14.76;98704.28;4993705;28;19914;-79
2023/08/24 09:10:44;;;;;;;;;;;;;;;45.92;15.33;98713.69;4977819;28;20308;-76
2023/08/24 09:13:09;;;;;;;;;;;;;;;45.48;15.58;98707.00;4993356;28;20373;-80
2023/08/24 09:15:35;;;;;;;;;;;;;;;45.18;15.82;98708.44;4992396;28;19913;-79
2023/08/24 09:18:00;;;;;;;;;;;;;;;44.88;15.57;98706.75;4993297;28;19921;-76
2023/08/24 09:20:27;;;;;;;;;;;;;;;44.77;16.00;98692.69;4993477;28;19913;-76
2023/08/24 09:22:54;;;;;;;;;;;;;;;44.49;15.96;98695.31;4993189;28;19936;-77
2023/08/24 09:25:20;;;;;;;;;;;;;;;44.41;16.56;98702.53;4993404;28;19913;-77
2023/08/24 09:27:45;;;;;;;;;;;;;;;44.26;16.55;98697.72;4993541;28;19914;-76
2023/08/24 09:30:11;;;;;;;;;;;;;;;43.97;16.81;98691.25;4993136;28;19914;-78
2023/08/24 09:32:36;;;;;;;;;;;;;;;43.71;16.90;98696.97;4993026;28;19917;-77
2023/08/24 09:35:05;;;;;;;;;;;;;;;43.47;17.23;98689.47;4992710;28;20381;-76
2023/08/24 09:37:32;;;;;;;;;;;;;;;43.32;17.58;98686.19;4993122;28;20384;-77
2023/08/24 09:40:11;;;;;;;;;;;;;;;43.42;17.29;98687.72;4992636;28;19972;-76
2023/08/24 09:42:38;;;;;;;;;;;;;;;43.49;17.41;98682.50;4993133;28;19960;-77
2023/08/24 09:45:05;;;;;;;;;;;;;;;43.43;17.77;98680.28;4993349;28;19918;-80
2023/08/24 09:47:30;;;;;;;;;;;;;;;43.35;17.89;98684.72;4992742;28;20404;-78
2023/08/24 09:50:00;;;;;;;;;;;;;;;43.22;17.63;98678.31;4992202;28;19913;-76
2023/08/24 09:52:25;;;;;;;;;;;;;;;43.05;18.09;98679.28;4992452;28;19960;-77
2023/08/24 09:54:51;;;;;;;;;;;;;;;43.27;17.87;98678.16;4992137;28;19941;-77
2023/08/24 09:57:16;;;;;;;;;;;;;;;43.33;17.62;98667.75;4992385;28;19920;-77
2023/08/24 09:59:41;;;;;;;;;;;;;;;43.34;17.71;98669.34;4992307;28;20293;-77
2023/08/24 10:02:10;;;;;;;;;;;;;;;43.03;18.05;98669.78;4991719;28;19914;-76
2023/08/24 10:04:35;;;;;;;;;;;;;;;42.93;18.24;98670.94;4992162;28;19913;-76
2023/08/24 10:07:04;;;;;;;;;;;;;;;42.71;18.10;98667.38;4992113;28;19921;-78
2023/08/24 10:09:39;;;;;;;;;;;;;;;42.53;18.38;98661.19;4992214;28;20364;-78
2023/08/24 10:12:05;;;;;;;;;;;;;;;42.36;18.11;98656.56;4992181;28;19913;-79
2023/08/24 10:14:43;;;;;;;;;;;;;;;42.42;18.50;98659.94;4991746;28;20016;-78
2023/08/24 10:17:09;;;;;;;;;;;;;;;42.47;18.70;98651.53;4992270;28;19921;-78
2023/08/24 10:19:35;;;;;;;;;;;;;;;42.47;18.12;98648.78;4992746;28;19914;-77
2023/08/24 10:22:01;;;;;;;;;;;;;;;42.48;18.67;98642.16;4993469;28;19921;-78
2023/08/24 10:24:27;;;;;;;;;;;;;;;42.51;17.87;98637.94;4993064;28;20324;-78
2023/08/24 10:26:52;;;;;;;;;;;;;;;42.47;17.54;98638.59;4991748;28;19917;-79
2023/08/24 10:29:18;;;;;;;;;;;;;;;42.49;17.41;98638.28;4992342;28;20013;-78
2023/08/24 10:31:43;;;;;;;;;;;;;;;42.36;17.46;98631.09;4992000;28;19914;-78
2023/08/24 10:34:09;;;;;;;;;;;;;;;42.24;17.38;98629.88;4991942;28;19941;-76
2023/08/24 10:36:34;;;;;;;;;;;;;;;42.28;17.53;98625.31;4992040;28;19913;-78
2023/08/24 10:39:05;;;;;;;;;;;;;;;42.19;17.22;98619.06;5008815;28;19960;-77
2023/08/24 10:41:30;;;;;;;;;;;;;;;41.68;17.29;98621.63;4992394;28;19914;-77
2023/08/24 10:44:06;;;;;;;;;;;;;;;41.19;17.73;98613.63;4991982;28;19913;-77
2023/08/24 10:46:34;;;;;;;;;;;;;;;41.34;18.07;98611.53;4992420;28;20395;-78
2023/08/24 10:48:59;;;;;;;;;;;;;;;41.44;17.76;98605.75;4991989;28;19925;-77
2023/08/24 10:51:29;;;;;;;;;;;;;;;41.44;17.61;98599.47;4991636;28;19913;-79
2023/08/24 10:54:03;;;;;;;;;;;;;;;41.54;17.62;98599.91;4992573;28;20006;-83
2023/08/24 10:56:38;;;;;;;;;;;;;;;41.61;17.88;98590.38;4992157;28;19917;-80
2023/08/24 10:59:10;;;;;;;;;;;;;;;41.65;18.22;98588.59;4991671;28;19925;-77
2023/08/24 11:01:38;;;;;;;;;;;;;;;41.68;17.83;98580.53;4991866;28;19956;-78
2023/08/24 11:04:04;;;;;;;;;;;;;;;41.58;17.32;98568.00;4991771;28;20369;-78
2023/08/24 11:06:30;;;;;;;;;;;;;;;41.57;17.00;98566.38;4991884;28;20012;-78
2023/08/24 11:09:15;;;;;;;;;;;;;;;41.30;17.40;98556.63;4992501;28;19913;-78
2023/08/24 11:11:43;;;;;;;;;;;;;;;41.08;17.61;98548.59;4991863;28;19917;-76
2023/08/24 11:14:25;;;;;;;;;;;;;;;40.78;18.15;98540.22;4991374;28;19921;-79
2023/08/24 11:16:51;;;;;;;;;;;;;;;40.50;17.99;98545.97;4991746;28;19914;-78
2023/08/24 11:19:16;;;;;;;;;;;;;;;40.32;17.83;98528.72;5007762;28;19924;-76
2023/08/24 11:21:42;;;;;;;;;;;;;;;40.16;18.16;98523.72;4991562;28;19914;-79
2023/08/24 11:24:08;;;;;;;;;;;;;;;40.14;18.25;98528.69;4991404;28;19914;-78
2023/08/24 11:26:34;;;;;;;;;;;;;;;40.05;18.16;98519.66;4991195;28;19924;-77
2023/08/24 11:28:59;;;;;;;;;;;;;;;39.87;18.41;98512.50;4991332;28;20320;-76
2023/08/24 11:31:24;;;;;;;;;;;;;;;39.83;18.42;98511.53;4991680;28;19996;-79
2023/08/24 11:33:54;;;;;;;;;;;;;;;39.96;18.63;98505.16;4991819;28;19914;-79
2023/08/24 11:36:19;;;;;;;;;;;;;;;40.07;18.34;98501.03;4991685;28;19914;-77
2023/08/24 11:38:45;;;;;;;;;;;;;;;39.89;18.54;98491.94;4992501;28;19914;-78
2023/08/24 11:41:14;;;;;;;;;;;;;;;39.84;18.62;98500.31;4995167;28;19968;-79
2023/08/24 11:43:40;;;;;;;;;;;;;;;39.84;18.80;98491.28;4994572;28;19913;-78
2023/08/24 11:46:05;;;;;;;;;;;;;;;39.84;18.77;98494.84;4994709;28;20299;-78
2023/08/24 11:48:30;;;;;;;;;;;;;;;39.56;19.07;98495.03;5011275;28;20377;-78
2023/08/24 11:50:57;;;;;;;;;;;;;;;39.40;19.06;98491.91;4994387;28;19914;-78
2023/08/24 11:53:24;;;;;;;;;;;;;;;39.43;18.90;98485.81;4994575;28;20403;-79
2023/08/24 11:55:49;;;;;;;;;;;;;;;39.50;19.37;98495.47;5011306;28;19921;-80
2023/08/24 11:58:15;;;;;;;;;;;;;;;39.39;19.01;98482.09;4995128;28;19913;-79
2023/08/24 12:00:41;;;;;;;;;;;;;;;39.52;19.43;98479.56;4994639;28;19913;-78
2023/08/24 12:03:07;;;;;;;;;;;;;;;39.61;19.30;98483.19;4994264;28;20289;-79
2023/08/24 12:05:32;;;;;;;;;;;;;;;39.56;19.33;98470.47;4994394;28;20072;-79
2023/08/24 12:07:57;;;;;;;;;;;;;;;39.55;19.29;98477.06;4978059;28;20407;-78
2023/08/24 12:10:22;;;;;;;;;;;;;;;39.59;19.30;98471.78;4978145;28;20368;-77
2023/08/24 12:12:48;;;;;;;;;;;;;;;39.61;19.39;98485.91;4977591;28;19925;-78
2023/08/24 12:15:19;;;;;;;;;;;;;;;39.63;19.57;98483.66;4978073;28;19913;-77
2023/08/24 12:17:45;;;;;;;;;;;;;;;39.61;19.74;98488.63;4978001;28;19944;-77
2023/08/24 12:20:21;;;;;;;;;;;;;;;39.58;20.03;98492.84;4978271;28;19914;-76
2023/08/24 12:22:53;;;;;;;;;;;;;;;39.52;20.06;98520.53;4978300;28;19973;-77
2023/08/24 12:25:21;;;;;;;;;;;;;;;39.27;21.63;98528.28;4994105;28;19968;-77
2023/08/24 12:27:47;;;;;;;;;;;;;;;39.01;23.79;98583.44;4977850;28;19917;-77
2023/08/24 12:30:12;;;;;;;;;;;;;;;38.71;25.20;98549.50;4993977;28;19976;-77
2023/08/24 12:32:44;;;;;;;;;;;;;;;38.28;26.40;98549.88;4977382;28;19913;-77
2023/08/24 12:35:09;;;;;;;;;;;;;;;37.71;27.55;98523.72;4977431;28;19918;-78
2023/08/24 12:37:35;;;;;;;;;;;;;;;37.25;28.42;98519.09;4993800;28;19924;-76
2023/08/24 12:40:01;;;;;;;;;;;;;;;36.98;28.75;98500.75;4977443;28;20359;-80
2023/08/24 12:42:27;;;;;;;;;;;;;;;36.70;30.05;98476.91;4993668;28;20009;-77